Time;durP1;ratioP1;P1;durP2;ratioP2;P2;SDS_P1;SDS_P2;PMS_P1;PMS_P2;Temp;Humidity;BMP_temperature;BMP_pressure;BME280_temperature;BME280_humidity;BME280_pressure;Samples;Min_cycle;Max_cycle;Signal;HPM_P1;HPM_P2
2022/12/19 00:00:23;;;;;;;14.10;9.27;;;;;;;;;;5093315;28;20438;-73
2022/12/19 00:02:49;;;;;;;12.93;8.47;;;;;;;;;;5096186;28;20443;-73
2022/12/19 00:05:15;;;;;;;12.67;8.37;;;;;;;;;;5096310;28;20367;-73
2022/12/19 00:07:47;;;;;;;14.60;8.53;;;;;;;;;;5095422;28;20481;-75
2022/12/19 00:10:13;;;;;;;13.77;8.75;;;;;;;;;;5094922;28;20397;-74
2022/12/19 00:12:39;;;;;;;13.17;8.30;;;;;;;;;;5096183;28;20016;-73
2022/12/19 00:15:06;;;;;;;14.57;8.47;;;;;;;;;;5096002;28;20434;-74
2022/12/19 00:17:32;;;;;;;12.73;8.17;;;;;;;;;;5096113;28;20122;-73
2022/12/19 00:19:58;;;;;;;11.83;8.07;;;;;;;;;;5096002;28;20453;-74
2022/12/19 00:22:24;;;;;;;11.93;7.80;;;;;;;;;;5095808;28;20024;-73
2022/12/19 00:24:50;;;;;;;11.60;7.73;;;;;;;;;;5095270;28;20082;-74
2022/12/19 00:27:17;;;;;;;12.63;8.87;;;;;;;;;;5095651;28;20097;-73
2022/12/19 00:29:43;;;;;;;12.17;7.70;;;;;;;;;;5095368;28;20073;-74
2022/12/19 00:32:09;;;;;;;13.00;8.30;;;;;;;;;;5095632;28;20371;-74
2022/12/19 00:34:35;;;;;;;13.37;8.83;;;;;;;;;;5094101;28;20107;-75
2022/12/19 00:37:01;;;;;;;12.27;8.67;;;;;;;;;;5095216;28;20016;-74
2022/12/19 00:39:27;;;;;;;14.60;9.30;;;;;;;;;;5095084;28;20428;-75
2022/12/19 00:41:53;;;;;;;14.03;8.73;;;;;;;;;;5095413;28;20393;-75
2022/12/19 00:44:19;;;;;;;12.60;8.60;;;;;;;;;;5095193;28;20087;-74
2022/12/19 00:46:45;;;;;;;13.60;8.47;;;;;;;;;;5093683;28;20377;-74
2022/12/19 00:49:12;;;;;;;12.30;8.00;;;;;;;;;;5094960;28;20723;-75
2022/12/19 00:51:38;;;;;;;13.07;7.57;;;;;;;;;;5094948;28;20543;-74
2022/12/19 00:54:04;;;;;;;11.90;7.30;;;;;;;;;;5094774;28;20032;-74
2022/12/19 00:56:32;;;;;;;12.53;7.47;;;;;;;;;;5094612;28;20466;-74
2022/12/19 00:58:58;;;;;;;11.93;7.87;;;;;;;;;;5094868;28;20024;-74
2022/12/19 01:01:26;;;;;;;12.37;8.27;;;;;;;;;;5094776;28;20020;-74
2022/12/19 01:03:52;;;;;;;11.87;7.10;;;;;;;;;;5093371;28;20486;-74
2022/12/19 01:06:18;;;;;;;10.70;7.40;;;;;;;;;;5094614;28;20028;-74
2022/12/19 01:08:44;;;;;;;11.37;7.67;;;;;;;;;;5095682;28;20484;-73
2022/12/19 01:11:10;;;;;;;12.50;8.30;;;;;;;;;;5095538;28;20028;-73
2022/12/19 01:13:37;;;;;;;10.97;7.33;;;;;;;;;;5095470;28;20487;-73
2022/12/19 01:16:04;;;;;;;10.23;7.40;;;;;;;;;;5095845;28;20416;-73
2022/12/19 01:18:30;;;;;;;11.90;7.67;;;;;;;;;;5095424;28;20402;-74
2022/12/19 01:20:59;;;;;;;10.03;7.30;;;;;;;;;;5095147;28;20398;-73
2022/12/19 01:23:25;;;;;;;13.50;8.27;;;;;;;;;;5095309;28;20052;-73
2022/12/19 01:25:54;;;;;;;11.10;7.20;;;;;;;;;;5095467;28;20432;-73
2022/12/19 01:28:21;;;;;;;10.67;6.87;;;;;;;;;;5095167;28;20370;-73
2022/12/19 01:30:47;;;;;;;10.53;7.40;;;;;;;;;;5095128;28;20389;-74
2022/12/19 01:33:14;;;;;;;12.70;7.50;;;;;;;;;;5094728;28;20101;-73
2022/12/19 01:35:41;;;;;;;11.77;7.20;;;;;;;;;;5094678;28;20419;-73
2022/12/19 01:38:07;;;;;;;11.93;7.33;;;;;;;;;;5094779;28;20077;-73
2022/12/19 01:40:33;;;;;;;9.57;6.67;;;;;;;;;;5094542;28;20087;-73
2022/12/19 01:43:01;;;;;;;10.60;7.20;;;;;;;;;;5094728;28;20496;-73
2022/12/19 01:45:34;;;;;;;11.03;7.33;;;;;;;;;;5094504;28;20394;-73
2022/12/19 01:48:03;;;;;;;10.45;7.00;;;;;;;;;;5093192;28;20059;-73
2022/12/19 01:50:34;;;;;;;11.47;7.53;;;;;;;;;;5094405;28;20050;-73
2022/12/19 01:53:00;;;;;;;10.53;6.87;;;;;;;;;;5094043;28;20043;-73
2022/12/19 01:55:26;;;;;;;10.90;7.77;;;;;;;;;;5094168;28;20362;-73
2022/12/19 01:57:54;;;;;;;10.23;7.67;;;;;;;;;;5093189;28;20085;-73
2022/12/19 02:00:20;;;;;;;12.30;8.13;;;;;;;;;;5091056;28;20362;-73
2022/12/19 02:02:48;;;;;;;12.10;6.90;;;;;;;;;;5089348;28;20090;-74
2022/12/19 02:05:14;;;;;;;12.67;7.57;;;;;;;;;;5092790;28;20020;-73
2022/12/19 02:07:41;;;;;;;13.37;8.00;;;;;;;;;;5092608;28;20389;-73
2022/12/19 02:10:08;;;;;;;13.33;7.93;;;;;;;;;;5093646;28;20017;-73
2022/12/19 02:12:36;;;;;;;11.70;8.17;;;;;;;;;;5093153;28;20431;-73
2022/12/19 02:15:03;;;;;;;11.70;7.47;;;;;;;;;;5093395;28;20114;-73
2022/12/19 02:17:36;;;;;;;11.10;7.37;;;;;;;;;;5092204;28;20388;-74
2022/12/19 02:20:08;;;;;;;11.47;7.53;;;;;;;;;;5092003;28;20485;-73
2022/12/19 02:22:53;;;;;;;12.43;8.13;;;;;;;;;;5093230;28;20039;-74
2022/12/19 02:25:34;;;;;;;12.60;8.03;;;;;;;;;;5092685;28;20049;-74
2022/12/19 02:28:00;;;;;;;11.67;7.90;;;;;;;;;;5092767;28;20615;-74
2022/12/19 02:30:29;;;;;;;10.93;8.03;;;;;;;;;;5093268;28;20382;-74
2022/12/19 02:33:03;;;;;;;13.07;8.60;;;;;;;;;;5091578;28;20370;-73
2022/12/19 02:35:35;;;;;;;13.20;8.90;;;;;;;;;;5092760;28;20397;-73
2022/12/19 02:38:01;;;;;;;13.10;7.80;;;;;;;;;;5093305;28;20028;-73
2022/12/19 02:40:29;;;;;;;14.37;9.40;;;;;;;;;;5092960;28;20024;-73
2022/12/19 02:42:59;;;;;;;13.63;9.73;;;;;;;;;;5092651;28;20477;-73
2022/12/19 02:45:26;;;;;;;12.77;8.67;;;;;;;;;;5092987;28;20470;-73
2022/12/19 02:47:52;;;;;;;13.03;8.90;;;;;;;;;;5092886;28;20461;-73
2022/12/19 02:50:19;;;;;;;14.20;8.73;;;;;;;;;;5093870;28;20359;-73
2022/12/19 02:52:46;;;;;;;14.07;8.47;;;;;;;;;;5093408;28;20393;-73
2022/12/19 02:55:15;;;;;;;11.47;8.20;;;;;;;;;;5093611;28;20086;-73
2022/12/19 02:58:08;;;;;;;12.63;8.57;;;;;;;;;;5094006;28;20070;-73
2022/12/19 03:00:37;;;;;;;13.48;8.82;;;;;;;;;;5077629;28;20040;-73
2022/12/19 03:03:03;;;;;;;12.40;8.23;;;;;;;;;;5093343;28;20040;-73
2022/12/19 03:05:51;;;;;;;12.73;8.40;;;;;;;;;;5093638;28;20032;-73
2022/12/19 03:08:25;;;;;;;13.33;8.73;;;;;;;;;;5093736;28;20023;-73
2022/12/19 03:11:00;;;;;;;12.97;8.30;;;;;;;;;;5093566;28;20078;-73
2022/12/19 03:13:29;;;;;;;13.50;8.53;;;;;;;;;;5093397;28;20363;-73
2022/12/19 03:15:56;;;;;;;12.73;8.50;;;;;;;;;;5093205;28;20428;-73
2022/12/19 03:18:22;;;;;;;12.87;8.60;;;;;;;;;;5093290;28;20381;-73
2022/12/19 03:21:01;;;;;;;12.97;8.63;;;;;;;;;;5092139;28;20047;-73
2022/12/19 03:23:28;;;;;;;15.50;8.30;;;;;;;;;;5093290;28;20367;-73
2022/12/19 03:25:56;;;;;;;13.13;8.57;;;;;;;;;;5093050;28;20051;-73
2022/12/19 03:28:29;;;;;;;15.20;9.07;;;;;;;;;;5091609;28;20065;-73
2022/12/19 03:30:55;;;;;;;;;;;;;;;;;;5093583;28;20435;-72
2022/12/19 03:33:22;;;;;;;14.07;8.73;;;;;;;;;;5092976;28;19912;-73
2022/12/19 03:35:49;;;;;;;13.23;8.67;;;;;;;;;;5094282;28;20381;-73
2022/12/19 03:38:15;;;;;;;12.63;8.93;;;;;;;;;;5096918;28;20480;-74
2022/12/19 03:40:43;;;;;;;14.37;9.30;;;;;;;;;;5096572;28;20137;-73
2022/12/19 03:43:10;;;;;;;14.30;9.30;;;;;;;;;;5096237;28;20027;-74
2022/12/19 03:45:40;;;;;;;13.97;9.47;;;;;;;;;;5096953;28;20393;-73
2022/12/19 03:48:15;;;;;;;15.40;9.53;;;;;;;;;;5096710;28;20024;-73
2022/12/19 03:51:00;;;;;;;13.30;8.30;;;;;;;;;;5096575;28;20028;-73
2022/12/19 03:53:26;;;;;;;13.30;9.37;;;;;;;;;;5096298;28;20040;-73
2022/12/19 03:56:13;;;;;;;14.73;9.23;;;;;;;;;;5096278;28;20032;-73
2022/12/19 03:58:41;;;;;;;13.93;8.93;;;;;;;;;;5095935;28;20024;-74
2022/12/19 04:01:09;;;;;;;17.13;8.20;;;;;;;;;;5096330;28;20495;-73
2022/12/19 04:03:35;;;;;;;12.50;9.10;;;;;;;;;;5094663;28;20097;-73
2022/12/19 04:06:03;;;;;;;12.93;8.47;;;;;;;;;;5096155;28;20024;-73
2022/12/19 04:08:30;;;;;;;14.50;8.87;;;;;;;;;;5095843;28;20024;-73
2022/12/19 04:11:02;;;;;;;11.67;8.70;;;;;;;;;;5095763;28;20047;-74
2022/12/19 04:13:37;;;;;;;14.18;8.93;;;;;;;;;;5095826;28;20036;-74
2022/12/19 04:16:17;;;;;;;13.77;9.03;;;;;;;;;;5095708;28;20416;-74
2022/12/19 04:18:46;;;;;;;14.80;9.50;;;;;;;;;;5095789;28;20054;-74
2022/12/19 04:21:15;;;;;;;14.13;9.23;;;;;;;;;;5095642;28;20524;-74
2022/12/19 04:23:44;;;;;;;14.47;9.10;;;;;;;;;;5095392;28;20466;-74
2022/12/19 04:26:12;;;;;;;14.63;9.63;;;;;;;;;;5095556;28;20032;-74
2022/12/19 04:28:41;;;;;;;14.53;9.77;;;;;;;;;;5095557;28;20531;-72
2022/12/19 04:31:10;;;;;;;15.10;10.10;;;;;;;;;;5095313;28;20028;-74
2022/12/19 04:33:36;;;;;;;13.33;9.60;;;;;;;;;;5095306;28;20124;-71
2022/12/19 04:36:03;;;;;;;15.33;9.77;;;;;;;;;;5095291;28;20466;-72
2022/12/19 04:38:29;;;;;;;15.10;9.70;;;;;;;;;;5095669;28;20059;-71
2022/12/19 04:40:55;;;;;;;13.97;9.47;;;;;;;;;;5096182;28;20445;-74
2022/12/19 04:43:21;;;;;;;13.97;9.70;;;;;;;;;;5095747;28;20469;-74
2022/12/19 04:45:48;;;;;;;16.00;10.70;;;;;;;;;;5094588;28;20371;-73
2022/12/19 04:48:14;;;;;;;14.63;9.80;;;;;;;;;;5096078;28;20495;-73
2022/12/19 04:50:40;;;;;;;14.30;9.77;;;;;;;;;;5096446;28;20032;-73
2022/12/19 04:53:06;;;;;;;15.57;10.10;;;;;;;;;;5095941;28;20381;-73
2022/12/19 04:55:32;;;;;;;16.27;9.97;;;;;;;;;;5095917;28;20447;-73
2022/12/19 04:57:58;;;;;;;14.77;9.97;;;;;;;;;;5095325;28;20413;-73
2022/12/19 05:00:24;;;;;;;14.47;9.40;;;;;;;;;;5095364;28;20378;-73
2022/12/19 05:02:51;;;;;;;14.47;9.57;;;;;;;;;;5095346;28;20040;-73
2022/12/19 05:05:17;;;;;;;13.97;9.33;;;;;;;;;;5095499;28;20428;-74
2022/12/19 05:07:43;;;;;;;14.70;10.00;;;;;;;;;;5095424;28;20382;-74
2022/12/19 05:10:10;;;;;;;13.80;9.70;;;;;;;;;;5094814;28;20359;-73
2022/12/19 05:12:36;;;;;;;13.70;9.37;;;;;;;;;;5095056;28;20431;-73
2022/12/19 05:15:02;;;;;;;18.70;11.53;;;;;;;;;;5094978;28;20024;-73
2022/12/19 05:17:28;;;;;;;16.57;10.77;;;;;;;;;;5095003;28;20053;-74
2022/12/19 05:19:55;;;;;;;15.07;10.77;;;;;;;;;;5094674;28;20047;-74
2022/12/19 05:22:21;;;;;;;13.07;10.33;;;;;;;;;;5094620;28;20031;-72
2022/12/19 05:24:47;;;;;;;17.40;10.07;;;;;;;;;;5094699;28;20367;-71
2022/12/19 05:27:13;;;;;;;15.77;10.50;;;;;;;;;;5093356;28;20390;-72
2022/12/19 05:29:39;;;;;;;15.13;10.30;;;;;;;;;;5094283;28;20166;-73
2022/12/19 05:32:05;;;;;;;16.40;10.00;;;;;;;;;;5094598;28;20429;-74
2022/12/19 05:34:32;;;;;;;17.27;10.30;;;;;;;;;;5094269;28;20123;-74
2022/12/19 05:36:58;;;;;;;14.93;9.67;;;;;;;;;;5094259;28;20039;-73
2022/12/19 05:39:24;;;;;;;15.03;10.03;;;;;;;;;;5094315;28;20032;-74
2022/12/19 05:41:50;;;;;;;16.17;10.43;;;;;;;;;;5093037;28;20385;-74
2022/12/19 05:44:16;;;;;;;13.87;10.00;;;;;;;;;;5094094;28;20093;-74
2022/12/19 05:46:42;;;;;;;15.13;10.10;;;;;;;;;;5093939;28;20433;-73
2022/12/19 05:49:08;;;;;;;15.67;9.80;;;;;;;;;;5093999;28;20098;-73
2022/12/19 05:51:34;;;;;;;15.10;10.17;;;;;;;;;;5093572;28;20064;-74
2022/12/19 05:54:00;;;;;;;17.27;10.70;;;;;;;;;;5093638;28;20032;-74
2022/12/19 05:56:27;;;;;;;15.30;10.20;;;;;;;;;;5093711;28;20385;-72
2022/12/19 05:58:53;;;;;;;16.00;10.80;;;;;;;;;;5093096;28;20052;-73
2022/12/19 06:01:20;;;;;;;16.27;10.73;;;;;;;;;;5092326;28;20588;-74
2022/12/19 06:03:47;;;;;;;18.30;10.90;;;;;;;;;;5092305;28;20481;-74
2022/12/19 06:06:14;;;;;;;18.10;11.17;;;;;;;;;;5093156;28;20028;-73
2022/12/19 06:08:40;;;;;;;16.13;10.83;;;;;;;;;;5092158;28;20123;-74
2022/12/19 06:11:07;;;;;;;18.60;11.13;;;;;;;;;;5093362;28;20028;-74
2022/12/19 06:13:33;;;;;;;18.83;10.43;;;;;;;;;;5093222;28;20478;-74
2022/12/19 06:16:01;;;;;;;20.77;11.50;;;;;;;;;;5091948;28;20058;-74
2022/12/19 06:18:27;;;;;;;15.43;10.50;;;;;;;;;;5093240;28;20477;-73
2022/12/19 06:20:57;;;;;;;16.80;10.80;;;;;;;;;;5093022;28;20032;-74
2022/12/19 06:23:23;;;;;;;18.97;11.87;;;;;;;;;;5091879;28;20028;-74
2022/12/19 06:25:49;;;;;;;17.77;11.40;;;;;;;;;;5092442;28;20158;-74
2022/12/19 06:28:15;;;;;;;21.50;11.43;;;;;;;;;;5094044;28;20028;-74
2022/12/19 06:30:41;;;;;;;22.87;11.87;;;;;;;;;;5094084;28;20381;-73
2022/12/19 06:33:07;;;;;;;16.10;10.97;;;;;;;;;;5093927;28;20386;-74
2022/12/19 06:35:34;;;;;;;19.73;10.60;;;;;;;;;;5092835;28;20427;-74
2022/12/19 06:38:00;;;;;;;18.77;11.80;;;;;;;;;;5093894;28;20439;-73
2022/12/19 06:43:11;;;;;;;19.63;11.33;;;;;;;;;;5093763;28;20070;-74
2022/12/19 06:45:37;;;;;;;18.47;11.80;;;;;;;;;;5093491;28;20058;-75
2022/12/19 06:48:03;;;;;;;17.93;11.63;;;;;;;;;;5093654;28;20016;-75
2022/12/19 06:50:29;;;;;;;20.83;12.77;;;;;;;;;;5092226;28;20405;-74
2022/12/19 06:52:55;;;;;;;19.20;11.13;;;;;;;;;;5093126;28;20048;-74
2022/12/19 06:55:21;;;;;;;17.23;11.73;;;;;;;;;;5093705;28;20022;-74
2022/12/19 06:57:48;;;;;;;17.60;11.87;;;;;;;;;;5093607;28;20069;-74
2022/12/19 07:00:14;;;;;;;18.30;11.77;;;;;;;;;;5093278;28;20393;-75
2022/12/19 07:02:45;;;;;;;19.10;12.40;;;;;;;;;;5093252;28;20024;-75
2022/12/19 07:05:12;;;;;;;17.63;11.37;;;;;;;;;;5092977;28;20398;-74
2022/12/19 07:07:38;;;;;;;26.07;12.30;;;;;;;;;;5093353;28;20020;-75
2022/12/19 07:10:05;;;;;;;24.07;12.33;;;;;;;;;;5095164;28;20410;-75
2022/12/19 07:12:31;;;;;;;19.77;12.73;;;;;;;;;;5097466;28;20081;-73
2022/12/19 07:14:57;;;;;;;23.13;13.13;;;;;;;;;;5096992;28;20514;-74
2022/12/19 07:17:24;;;;;;;22.13;13.53;;;;;;;;;;5097163;28;20416;-74
2022/12/19 07:19:50;;;;;;;18.00;12.50;;;;;;;;;;5097348;28;20086;-73
2022/12/19 07:22:17;;;;;;;18.47;11.90;;;;;;;;;;5097295;28;20032;-73
2022/12/19 07:24:43;;;;;;;18.47;12.23;;;;;;;;;;5095735;28;20436;-74
2022/12/19 07:27:09;;;;;;;22.37;13.23;;;;;;;;;;5096903;28;20028;-73
2022/12/19 07:29:35;;;;;;;19.10;12.23;;;;;;;;;;5095399;28;20459;-75
2022/12/19 07:32:01;;;;;;;23.23;12.37;;;;;;;;;;5096770;28;20432;-76
2022/12/19 07:34:28;;;;;;;18.77;11.97;;;;;;;;;;5096701;28;20043;-76
2022/12/19 07:36:55;;;;;;;22.63;12.33;;;;;;;;;;5095706;28;20346;-75
2022/12/19 07:39:21;;;;;;;18.60;12.23;;;;;;;;;;5096356;28;20032;-75
2022/12/19 07:41:47;;;;;;;16.47;10.93;;;;;;;;;;5096545;28;20024;-76
2022/12/19 07:44:15;;;;;;;16.97;11.63;;;;;;;;;;5096411;28;20374;-76
2022/12/19 07:46:41;;;;;;;20.90;11.97;;;;;;;;;;5096441;28;20497;-77
2022/12/19 07:49:08;;;;;;;18.57;12.10;;;;;;;;;;5096189;28;20095;-76
2022/12/19 07:51:34;;;;;;;21.07;13.07;;;;;;;;;;5096348;28;20542;-77
2022/12/19 07:54:00;;;;;;;20.70;13.20;;;;;;;;;;5096044;28;20397;-77
2022/12/19 07:56:26;;;;;;;21.10;12.67;;;;;;;;;;5096149;28;20145;-77
2022/12/19 07:58:52;;;;;;;19.27;12.63;;;;;;;;;;5096111;28;20462;-77
2022/12/19 08:01:19;;;;;;;22.63;13.60;;;;;;;;;;5095946;28;20032;-79
2022/12/19 08:03:45;;;;;;;19.20;13.23;;;;;;;;;;5095860;28;20071;-77
2022/12/19 08:06:11;;;;;;;19.23;12.33;;;;;;;;;;5095983;28;20085;-76
2022/12/19 08:08:37;;;;;;;18.07;12.47;;;;;;;;;;5096316;28;20446;-76
2022/12/19 08:11:10;;;;;;;20.03;11.93;;;;;;;;;;5096477;28;20032;-76
2022/12/19 08:13:36;;;;;;;18.87;12.67;;;;;;;;;;5096586;28;20057;-76
2022/12/19 08:16:02;;;;;;;20.43;12.07;;;;;;;;;;5096866;28;20402;-77
2022/12/19 08:18:29;;;;;;;20.30;12.40;;;;;;;;;;5096859;28;20059;-75
2022/12/19 08:20:55;;;;;;;19.93;12.20;;;;;;;;;;5095839;28;20032;-76
2022/12/19 08:23:21;;;;;;;24.37;12.90;;;;;;;;;;5096573;28;20024;-76
2022/12/19 08:25:47;;;;;;;18.40;12.30;;;;;;;;;;5096416;28;20052;-75
2022/12/19 08:28:13;;;;;;;18.00;12.10;;;;;;;;;;5095971;28;20389;-76
2022/12/19 08:30:40;;;;;;;20.43;12.53;;;;;;;;;;5096153;28;20024;-76
2022/12/19 08:33:06;;;;;;;19.97;13.03;;;;;;;;;;5095777;28;20027;-76
2022/12/19 08:35:32;;;;;;;18.10;12.63;;;;;;;;;;5096079;28;20491;-76
2022/12/19 08:37:58;;;;;;;19.40;12.23;;;;;;;;;;5096269;28;20040;-77
2022/12/19 08:40:25;;;;;;;19.17;12.10;;;;;;;;;;5095748;28;20377;-76
2022/12/19 08:42:51;;;;;;;18.50;12.60;;;;;;;;;;5095918;28;20451;-78
2022/12/19 08:45:17;;;;;;;18.00;12.33;;;;;;;;;;5095929;28;20017;-76
2022/12/19 08:47:43;;;;;;;18.70;11.83;;;;;;;;;;5095672;28;20390;-75
2022/12/19 08:50:10;;;;;;;19.80;12.83;;;;;;;;;;5095748;28;20020;-77
2022/12/19 08:52:36;;;;;;;19.47;12.33;;;;;;;;;;5095461;28;20056;-76
2022/12/19 08:55:03;;;;;;;18.37;11.37;;;;;;;;;;5095314;28;20512;-80
2022/12/19 08:57:29;;;;;;;18.27;11.57;;;;;;;;;;5094082;28;20486;-77
2022/12/19 08:59:55;;;;;;;20.03;13.07;;;;;;;;;;5095543;28;20059;-77
2022/12/19 09:02:23;;;;;;;18.13;12.17;;;;;;;;;;5093911;28;20397;-79
2022/12/19 09:04:49;;;;;;;20.90;12.17;;;;;;;;;;5090450;28;20159;-78
2022/12/19 09:07:15;;;;;;;20.13;12.40;;;;;;;;;;5091885;28;20028;-77
2022/12/19 09:09:42;;;;;;;19.40;12.37;;;;;;;;;;5091900;28;20068;-78
2022/12/19 09:12:08;;;;;;;17.07;11.37;;;;;;;;;;5091922;28;20063;-77
2022/12/19 09:14:34;;;;;;;19.37;12.00;;;;;;;;;;5094587;28;20443;-78
2022/12/19 09:17:00;;;;;;;19.50;11.17;;;;;;;;;;5094458;28;20073;-78
2022/12/19 09:19:27;;;;;;;17.53;11.53;;;;;;;;;;5094822;28;20028;-77
2022/12/19 09:21:53;;;;;;;18.00;11.43;;;;;;;;;;5094461;28;20032;-78
2022/12/19 09:24:19;;;;;;;21.00;11.43;;;;;;;;;;5093289;28;20298;-77
2022/12/19 09:26:45;;;;;;;18.77;11.73;;;;;;;;;;5094035;28;20024;-77
2022/12/19 09:29:12;;;;;;;19.10;10.90;;;;;;;;;;5093240;28;20028;-81
2022/12/19 09:31:38;;;;;;;17.20;10.57;;;;;;;;;;5093362;28;20108;-79
2022/12/19 09:34:04;;;;;;;17.53;11.33;;;;;;;;;;5092265;28;20032;-78
2022/12/19 09:36:30;;;;;;;19.60;12.00;;;;;;;;;;5093592;28;20377;-76
2022/12/19 09:38:57;;;;;;;19.97;10.90;;;;;;;;;;5093955;28;20103;-77
2022/12/19 09:41:35;;;;;;;18.20;11.77;;;;;;;;;;5094179;28;20389;-76
2022/12/19 09:44:09;;;;;;;15.50;10.63;;;;;;;;;;5094337;28;20032;-76
2022/12/19 09:46:35;;;;;;;16.93;11.03;;;;;;;;;;5093822;28;20393;-77
2022/12/19 09:49:02;;;;;;;16.77;11.70;;;;;;;;;;5094101;28;20470;-76
2022/12/19 09:51:34;;;;;;;15.97;11.33;;;;;;;;;;5093249;28;20066;-77
2022/12/19 09:54:06;;;;;;;18.00;10.43;;;;;;;;;;5095182;28;20069;-76
2022/12/19 09:56:34;;;;;;;15.90;10.88;;;;;;;;;;5095252;28;20424;-77
2022/12/19 09:59:19;;;;;;;17.10;11.27;;;;;;;;;;5094844;28;20049;-76
2022/12/19 10:01:57;;;;;;;21.07;11.33;;;;;;;;;;5094682;28;20020;-77
2022/12/19 10:04:26;;;;;;;16.97;11.17;;;;;;;;;;5094157;28;20055;-75
2022/12/19 10:06:52;;;;;;;16.57;11.10;;;;;;;;;;5093289;28;20020;-76
2022/12/19 10:09:20;;;;;;;16.63;11.53;;;;;;;;;;5094617;28;20366;-77
2022/12/19 10:11:52;;;;;;;18.33;10.73;;;;;;;;;;5094607;28;20386;-76
2022/12/19 10:14:19;;;;;;;18.48;11.10;;;;;;;;;;5093254;28;20036;-77
2022/12/19 10:16:57;;;;;;;17.97;10.60;;;;;;;;;;5094236;28;20377;-76
2022/12/19 10:19:31;;;;;;;16.50;10.83;;;;;;;;;;5094272;28;20373;-76
2022/12/19 10:22:04;;;;;;;20.00;11.83;;;;;;;;;;5094018;28;20419;-76
2022/12/19 10:24:49;;;;;;;18.03;11.97;;;;;;;;;;5094267;28;20061;-76
2022/12/19 10:27:27;;;;;;;18.47;12.13;;;;;;;;;;5093741;28;20465;-77
2022/12/19 10:30:11;;;;;;;20.90;12.40;;;;;;;;;;5093865;28;20433;-77
2022/12/19 10:32:37;;;;;;;18.87;11.60;;;;;;;;;;5092408;28;20066;-77
2022/12/19 10:35:14;;;;;;;18.03;12.00;;;;;;;;;;5093481;28;20423;-77
2022/12/19 10:37:44;;;;;;;16.37;11.00;;;;;;;;;;5092103;28;20378;-77
2022/12/19 10:40:11;;;;;;;18.73;11.20;;;;;;;;;;5093795;28;20427;-77
2022/12/19 10:42:55;;;;;;;17.30;11.47;;;;;;;;;;5092100;28;20028;-76
2022/12/19 10:45:22;;;;;;;17.13;11.40;;;;;;;;;;5092909;28;20020;-78
2022/12/19 10:47:56;;;;;;;17.87;11.60;;;;;;;;;;5092209;28;20020;-77
2022/12/19 10:50:23;;;;;;;19.57;12.03;;;;;;;;;;5093359;28;20084;-77
2022/12/19 10:52:51;;;;;;;18.43;12.00;;;;;;;;;;5093225;28;20421;-77
2022/12/19 10:55:37;;;;;;;17.83;11.53;;;;;;;;;;5106756;22;20052;-77
2022/12/19 10:58:39;;;;;;;15.23;9.90;;;;;;;;;;5091735;28;20383;-76
2022/12/19 11:14:44;;;;;;;15.98;11.32;;;;;;;;;;4857704;29;20099;-79
2022/12/19 11:29:21;;;;;;;16.60;11.50;;;;;;;;;;4933394;29;20566;-79
2022/12/19 11:31:48;;;;;;;19.47;11.60;;;;;;;;;;4939712;29;20035;-78
2022/12/19 11:34:22;;;;;;;15.40;10.90;;;;;;;;;;4985079;28;20044;-78
2022/12/19 11:36:48;;;;;;;15.53;10.47;;;;;;;;;;5092777;28;20050;-78
2022/12/19 11:39:28;;;;;;;16.67;10.57;;;;;;;;;;5091414;28;20035;-78
2022/12/19 11:42:06;;;;;;;17.57;11.50;;;;;;;;;;5091172;28;20374;-79
2022/12/19 11:44:35;;;;;;;16.40;11.13;;;;;;;;;;5091878;28;20078;-78
2022/12/19 11:47:11;;;;;;;16.53;11.03;;;;;;;;;;5092538;28;20028;-79
2022/12/19 11:49:43;;;;;;;15.83;11.07;;;;;;;;;;5091203;28;20032;-79
2022/12/19 11:52:09;;;;;;;17.03;11.57;;;;;;;;;;5092328;28;20054;-79
2022/12/19 11:54:35;;;;;;;16.40;10.93;;;;;;;;;;5088910;28;20060;-79
2022/12/19 11:57:01;;;;;;;18.43;11.70;;;;;;;;;;5091633;28;20085;-78
2022/12/19 11:59:46;;;;;;;16.60;11.13;;;;;;;;;;5095811;28;20118;-78
2022/12/19 12:02:18;;;;;;;16.90;11.13;;;;;;;;;;5096322;28;20508;-77
2022/12/19 12:04:54;;;;;;;18.65;12.02;;;;;;;;;;5096169;28;20470;-78
2022/12/19 12:07:20;;;;;;;15.93;11.57;;;;;;;;;;5095934;28;20470;-78
2022/12/19 12:09:55;;;;;;;17.07;11.57;;;;;;;;;;5095728;28;20063;-78
2022/12/19 12:12:31;;;;;;;17.50;11.43;;;;;;;;;;5094571;28;20016;-79
2022/12/19 12:15:13;;;;;;;17.23;10.63;;;;;;;;;;5095680;28;20520;-80
2022/12/19 12:17:46;;;;;;;18.90;11.10;;;;;;;;;;5094788;28;20024;-81
2022/12/19 12:20:36;;;;;;;19.40;11.60;;;;;;;;;;5093103;28;20116;-78
2022/12/19 12:23:05;;;;;;;16.07;10.40;;;;;;;;;;5092778;28;20526;-79
2022/12/19 12:25:31;;;;;;;16.80;10.60;;;;;;;;;;5094838;28;20028;-80
2022/12/19 12:28:16;;;;;;;16.53;10.60;;;;;;;;;;5095430;28;20024;-78
2022/12/19 12:30:47;;;;;;;17.87;11.17;;;;;;;;;;5095140;28;20028;-79
2022/12/19 12:33:28;;;;;;;16.80;10.70;;;;;;;;;;5095857;28;20032;-79
2022/12/19 12:35:59;;;;;;;14.77;10.53;;;;;;;;;;5096036;28;20028;-78
2022/12/19 12:39:11;;;;;;;;;;;;;;;;;;;;;
2022/12/19 12:42:04;;;;;;;15.70;10.90;;;;;;;;;;5032810;28;20032;-80
2022/12/19 12:44:56;;;;;;;15.20;10.60;;;;;;;;;;5094058;28;20020;-80
2022/12/19 12:47:52;;;;;;;14.80;11.07;;;;;;;;;;5095991;28;20425;-80
2022/12/19 12:56:34;;;;;;;23.17;16.33;;;;;;;;;;5094306;28;20078;-81
2022/12/19 13:15:06;;;;;;;17.03;10.20;;;;;;;;;;4973866;28;20042;-79
2022/12/19 13:17:32;;;;;;;17.57;10.57;;;;;;;;;;4970178;28;20428;-78
2022/12/19 13:20:04;;;;;;;21.70;11.00;;;;;;;;;;4985017;28;20499;-78
2022/12/19 13:22:31;;;;;;;20.30;11.40;;;;;;;;;;5036328;28;20358;-78
2022/12/19 13:24:58;;;;;;;17.97;11.73;;;;;;;;;;5093148;28;20063;-76
2022/12/19 13:27:24;;;;;;;20.57;12.73;;;;;;;;;;5093742;28;20388;-78
2022/12/19 13:29:56;;;;;;;16.33;11.20;;;;;;;;;;5093973;28;20012;-78
2022/12/19 13:32:22;;;;;;;17.30;11.53;;;;;;;;;;5093957;28;20351;-77
2022/12/19 13:34:52;;;;;;;23.50;15.27;;;;;;;;;;5091353;28;20370;-78
2022/12/19 13:37:18;;;;;;;24.67;17.23;;;;;;;;;;5093738;28;20389;-78
2022/12/19 13:39:58;;;;;;;19.00;14.23;;;;;;;;;;5093700;28;20474;-78
2022/12/19 13:45:20;;;;;;;20.40;12.77;;;;;;;;;;5093119;28;20039;-77
2022/12/19 13:47:46;;;;;;;20.63;13.87;;;;;;;;;;5091907;28;21604;-79
2022/12/19 13:50:30;;;;;;;16.13;11.50;;;;;;;;;;5090897;28;20031;-79
2022/12/19 13:52:56;;;;;;;14.20;9.90;;;;;;;;;;5091454;28;20073;-78
2022/12/19 13:55:23;;;;;;;14.53;9.97;;;;;;;;;;5093375;28;20111;-77
2022/12/19 13:57:53;;;;;;;16.70;9.70;;;;;;;;;;5094708;28;20024;-74
2022/12/19 14:00:21;;;;;;;15.83;10.17;;;;;;;;;;5093162;28;20413;-80
2022/12/19 14:02:52;;;;;;;16.23;10.30;;;;;;;;;;5093050;28;20473;-78
2022/12/19 14:05:26;;;;;;;17.33;10.73;;;;;;;;;;5093221;28;20053;-78
2022/12/19 14:07:52;;;;;;;18.40;12.57;;;;;;;;;;5093126;28;20016;-79
2022/12/19 14:10:21;;;;;;;18.63;12.63;;;;;;;;;;5093108;28;20018;-79
2022/12/19 14:15:35;;;;;;;16.97;12.57;;;;;;;;;;5091813;28;20451;-79
2022/12/19 14:18:02;;;;;;;16.43;11.33;;;;;;;;;;5092554;28;20431;-79
2022/12/19 14:20:30;;;;;;;16.57;10.83;;;;;;;;;;5093497;28;20036;-79
2022/12/19 14:23:00;;;;;;;15.57;10.03;;;;;;;;;;5094095;28;20016;-77
2022/12/19 14:25:45;;;;;;;15.37;11.10;;;;;;;;;;5094186;28;20030;-76
2022/12/19 14:28:14;;;;;;;16.23;10.60;;;;;;;;;;5093456;28;20016;-76
2022/12/19 14:30:45;;;;;;;15.13;10.20;;;;;;;;;;5093992;28;20081;-78
2022/12/19 14:36:40;;;;;;;14.50;10.27;;;;;;;;;;5092051;28;20035;-79
2022/12/19 14:45:44;;;;;;;15.13;11.18;;;;;;;;;;5031259;28;20530;-78
2022/12/19 14:51:36;;;;;;;19.20;12.73;;;;;;;;;;5081416;28;20545;-78
2022/12/19 14:57:25;;;;;;;19.13;11.73;;;;;;;;;;5029451;28;20049;-77
2022/12/19 14:59:51;;;;;;;19.40;12.23;;;;;;;;;;5030376;28;20045;-77
2022/12/19 15:02:28;;;;;;;18.40;12.97;;;;;;;;;;5082152;28;20389;-77
2022/12/19 15:05:02;;;;;;;19.83;13.13;;;;;;;;;;5113073;28;20059;-76
2022/12/19 15:07:29;;;;;;;19.53;12.90;;;;;;;;;;5113436;28;20030;-76
2022/12/19 15:10:00;;;;;;;20.17;13.50;;;;;;;;;;5112600;28;20362;-76
2022/12/19 15:15:35;;;;;;;17.33;11.98;;;;;;;;;;5112903;28;20043;-76
2022/12/19 15:18:03;;;;;;;16.75;11.90;;;;;;;;;;5094704;28;20412;-76
2022/12/19 15:20:29;;;;;;;18.97;11.73;;;;;;;;;;5094798;28;20112;-76
2022/12/19 15:22:55;;;;;;;17.10;11.27;;;;;;;;;;5113053;28;20422;-75
2022/12/19 15:25:21;;;;;;;17.43;11.50;;;;;;;;;;5113169;28;20035;-75
2022/12/19 15:27:47;;;;;;;15.60;11.07;;;;;;;;;;5113389;28;20481;-76
2022/12/19 15:30:17;;;;;;;24.97;12.53;;;;;;;;;;5113601;28;20462;-75
2022/12/19 15:32:44;;;;;;;21.13;11.67;;;;;;;;;;5116842;28;20035;-76
2022/12/19 15:35:11;;;;;;;16.57;11.77;;;;;;;;;;5098599;28;20505;-76
2022/12/19 15:37:38;;;;;;;17.80;11.53;;;;;;;;;;5116862;28;20043;-76
2022/12/19 15:40:04;;;;;;;20.67;13.07;;;;;;;;;;5116819;28;20504;-76
2022/12/19 15:42:30;;;;;;;17.20;12.07;;;;;;;;;;5116927;28;20058;-77
2022/12/19 15:44:58;;;;;;;18.13;12.50;;;;;;;;;;5117028;28;20028;-77
2022/12/19 15:47:35;;;;;;;25.23;12.33;;;;;;;;;;5116574;28;20019;-76
2022/12/19 15:50:05;;;;;;;18.47;12.90;;;;;;;;;;5116549;28;20035;-75